Ottertail, Minnesota
Current Conditions -  °F | °C
As of 5:15 AM on Tuesday 21 Oct 2014 (Local Time) from KADC Reporting Station
Clear Clear  
Wind Chill: 32°   Ceiling: Unl
Heat Index: 36°   Visibility: 10mi
Dew Point: 34°   Wind: 5mph
Humidity: 93%   Direction: 110°ESE
Pressure: 30.12"   Gusts: NA
Location:  46.43°N, 95.56°W
Report Text: KADC 211015Z AUTO 11004KT 10SM CLR 02/01 A3012 RMK AO2
Loading
Personal Weather Stations






























Interactive Weather Map
Tropical Storm Tracking
New forecast layout! Learn more

10-Day Weather Forecast

Advertisements
Track Severe Weather on mobile